sensor_id;sensor_type;location;lat;lon;timestamp;P1;durP1;ratioP1;P2;durP2;ratioP2
36789;SDS011;22740;52.182;8.780;2023-03-01T00:04:26;6.95;;;4.15;;
36789;SDS011;22740;52.182;8.780;2023-03-01T00:10:28;8.70;;;4.22;;
36789;SDS011;22740;52.182;8.780;2023-03-01T00:16:31;8.75;;;4.65;;
36789;SDS011;22740;52.182;8.780;2023-03-01T00:22:35;9.77;;;5.03;;
36789;SDS011;22740;52.182;8.780;2023-03-01T00:28:38;10.77;;;5.07;;
36789;SDS011;22740;52.182;8.780;2023-03-01T00:34:39;8.82;;;4.55;;
36789;SDS011;22740;52.182;8.780;2023-03-01T00:40:41;10.32;;;4.53;;
36789;SDS011;22740;52.182;8.780;2023-03-01T00:46:43;9.40;;;4.63;;
36789;SDS011;22740;52.182;8.780;2023-03-01T00:52:45;9.68;;;4.63;;
36789;SDS011;22740;52.182;8.780;2023-03-01T00:58:47;8.35;;;4.45;;
36789;SDS011;22740;52.182;8.780;2023-03-01T01:04:49;11.30;;;5.13;;
36789;SDS011;22740;52.182;8.780;2023-03-01T01:10:51;9.52;;;4.45;;
36789;SDS011;22740;52.182;8.780;2023-03-01T01:16:52;11.30;;;5.05;;
36789;SDS011;22740;52.182;8.780;2023-03-01T01:22:54;8.60;;;4.57;;
36789;SDS011;22740;52.182;8.780;2023-03-01T01:28:56;8.48;;;4.50;;
36789;SDS011;22740;52.182;8.780;2023-03-01T01:34:59;8.80;;;4.35;;
36789;SDS011;22740;52.182;8.780;2023-03-01T01:41:01;10.02;;;5.57;;
36789;SDS011;22740;52.182;8.780;2023-03-01T01:53:10;11.32;;;5.20;;
36789;SDS011;22740;52.182;8.780;2023-03-01T01:59:18;13.18;;;5.25;;
36789;SDS011;22740;52.182;8.780;2023-03-01T02:05:22;12.05;;;5.10;;
36789;SDS011;22740;52.182;8.780;2023-03-01T02:11:45;11.45;;;4.85;;
36789;SDS011;22740;52.182;8.780;2023-03-01T02:17:49;8.50;;;4.95;;
36789;SDS011;22740;52.182;8.780;2023-03-01T02:23:52;9.00;;;4.28;;
36789;SDS011;22740;52.182;8.780;2023-03-01T02:29:56;8.18;;;4.38;;
36789;SDS011;22740;52.182;8.780;2023-03-01T02:36:20;7.55;;;4.30;;
36789;SDS011;22740;52.182;8.780;2023-03-01T02:42:22;9.35;;;4.80;;
36789;SDS011;22740;52.182;8.780;2023-03-01T02:48:27;9.13;;;4.10;;
36789;SDS011;22740;52.182;8.780;2023-03-01T02:54:43;9.35;;;4.63;;
36789;SDS011;22740;52.182;8.780;2023-03-01T03:01:03;10.38;;;4.82;;
36789;SDS011;22740;52.182;8.780;2023-03-01T03:07:05;10.75;;;5.43;;
36789;SDS011;22740;52.182;8.780;2023-03-01T03:13:08;10.63;;;5.82;;
36789;SDS011;22740;52.182;8.780;2023-03-01T03:19:12;9.88;;;5.85;;
36789;SDS011;22740;52.182;8.780;2023-03-01T03:25:14;9.98;;;5.60;;
36789;SDS011;22740;52.182;8.780;2023-03-01T03:31:17;10.65;;;5.75;;
36789;SDS011;22740;52.182;8.780;2023-03-01T03:37:19;8.93;;;4.55;;
36789;SDS011;22740;52.182;8.780;2023-03-01T03:43:40;13.40;;;5.38;;
36789;SDS011;22740;52.182;8.780;2023-03-01T03:49:43;9.87;;;5.27;;
36789;SDS011;22740;52.182;8.780;2023-03-01T03:55:45;11.77;;;5.47;;
36789;SDS011;22740;52.182;8.780;2023-03-01T04:01:50;8.20;;;4.25;;
36789;SDS011;22740;52.182;8.780;2023-03-01T04:07:52;9.50;;;4.53;;
36789;SDS011;22740;52.182;8.780;2023-03-01T04:14:03;14.38;;;4.30;;
36789;SDS011;22740;52.182;8.780;2023-03-01T04:20:05;9.23;;;4.70;;
36789;SDS011;22740;52.182;8.780;2023-03-01T04:26:08;9.30;;;5.40;;
36789;SDS011;22740;52.182;8.780;2023-03-01T04:32:10;8.98;;;5.00;;
36789;SDS011;22740;52.182;8.780;2023-03-01T04:38:15;8.60;;;4.57;;
36789;SDS011;22740;52.182;8.780;2023-03-01T04:44:20;11.32;;;4.88;;
36789;SDS011;22740;52.182;8.780;2023-03-01T04:50:22;11.38;;;4.70;;
36789;SDS011;22740;52.182;8.780;2023-03-01T04:56:24;9.98;;;4.88;;
36789;SDS011;22740;52.182;8.780;2023-03-01T05:02:26;21.98;;;6.07;;
36789;SDS011;22740;52.182;8.780;2023-03-01T05:08:28;26.00;;;6.25;;
36789;SDS011;22740;52.182;8.780;2023-03-01T05:14:30;24.00;;;6.15;;
36789;SDS011;22740;52.182;8.780;2023-03-01T05:20:32;32.08;;;6.53;;
36789;SDS011;22740;52.182;8.780;2023-03-01T05:26:37;20.20;;;5.32;;
36789;SDS011;22740;52.182;8.780;2023-03-01T05:32:45;17.60;;;6.53;;
36789;SDS011;22740;52.182;8.780;2023-03-01T05:38:49;9.65;;;4.68;;
36789;SDS011;22740;52.182;8.780;2023-03-01T05:44:51;12.23;;;5.45;;
36789;SDS011;22740;52.182;8.780;2023-03-01T05:50:52;8.32;;;4.47;;
36789;SDS011;22740;52.182;8.780;2023-03-01T05:56:54;11.13;;;5.30;;
36789;SDS011;22740;52.182;8.780;2023-03-01T06:02:57;8.63;;;4.88;;
36789;SDS011;22740;52.182;8.780;2023-03-01T06:09:00;10.70;;;5.22;;
36789;SDS011;22740;52.182;8.780;2023-03-01T06:15:02;10.52;;;4.93;;
36789;SDS011;22740;52.182;8.780;2023-03-01T06:21:06;9.10;;;5.07;;
36789;SDS011;22740;52.182;8.780;2023-03-01T06:27:09;10.85;;;5.43;;
36789;SDS011;22740;52.182;8.780;2023-03-01T06:33:11;12.90;;;5.95;;
36789;SDS011;22740;52.182;8.780;2023-03-01T06:39:12;18.48;;;5.57;;
36789;SDS011;22740;52.182;8.780;2023-03-01T06:45:15;54.63;;;9.00;;
36789;SDS011;22740;52.182;8.780;2023-03-01T06:51:17;30.65;;;7.07;;
36789;SDS011;22740;52.182;8.780;2023-03-01T06:57:19;14.02;;;6.18;;
36789;SDS011;22740;52.182;8.780;2023-03-01T07:03:21;12.98;;;6.45;;
36789;SDS011;22740;52.182;8.780;2023-03-01T07:09:23;12.27;;;6.72;;
36789;SDS011;22740;52.182;8.780;2023-03-01T07:15:26;15.13;;;6.60;;
36789;SDS011;22740;52.182;8.780;2023-03-01T07:21:28;11.35;;;5.50;;
36789;SDS011;22740;52.182;8.780;2023-03-01T07:27:30;11.95;;;6.30;;
36789;SDS011;22740;52.182;8.780;2023-03-01T07:33:32;13.82;;;5.90;;
36789;SDS011;22740;52.182;8.780;2023-03-01T07:39:34;10.63;;;5.22;;
36789;SDS011;22740;52.182;8.780;2023-03-01T07:45:35;17.48;;;6.65;;
36789;SDS011;22740;52.182;8.780;2023-03-01T07:51:37;17.52;;;7.93;;
36789;SDS011;22740;52.182;8.780;2023-03-01T07:57:39;10.68;;;6.60;;
36789;SDS011;22740;52.182;8.780;2023-03-01T08:03:41;11.13;;;7.20;;
36789;SDS011;22740;52.182;8.780;2023-03-01T08:09:44;17.33;;;8.40;;
36789;SDS011;22740;52.182;8.780;2023-03-01T08:15:46;13.13;;;7.00;;
36789;SDS011;22740;52.182;8.780;2023-03-01T08:21:48;12.60;;;7.20;;
36789;SDS011;22740;52.182;8.780;2023-03-01T08:27:50;14.20;;;7.85;;
36789;SDS011;22740;52.182;8.780;2023-03-01T08:33:53;13.43;;;8.25;;
36789;SDS011;22740;52.182;8.780;2023-03-01T08:39:56;13.40;;;7.63;;
36789;SDS011;22740;52.182;8.780;2023-03-01T08:45:58;8.88;;;5.38;;
36789;SDS011;22740;52.182;8.780;2023-03-01T08:52:01;11.68;;;5.53;;
36789;SDS011;22740;52.182;8.780;2023-03-01T08:58:03;11.25;;;6.22;;
36789;SDS011;22740;52.182;8.780;2023-03-01T09:04:05;10.95;;;5.80;;
36789;SDS011;22740;52.182;8.780;2023-03-01T09:10:07;9.40;;;5.88;;
36789;SDS011;22740;52.182;8.780;2023-03-01T09:16:11;10.43;;;5.82;;
36789;SDS011;22740;52.182;8.780;2023-03-01T09:22:14;13.27;;;5.57;;
36789;SDS011;22740;52.182;8.780;2023-03-01T09:28:16;10.25;;;5.75;;
36789;SDS011;22740;52.182;8.780;2023-03-01T09:34:30;9.90;;;5.35;;
36789;SDS011;22740;52.182;8.780;2023-03-01T09:40:32;11.95;;;5.05;;
36789;SDS011;22740;52.182;8.780;2023-03-01T09:46:37;9.35;;;4.90;;
36789;SDS011;22740;52.182;8.780;2023-03-01T09:52:43;10.38;;;5.82;;
36789;SDS011;22740;52.182;8.780;2023-03-01T09:58:54;8.88;;;5.05;;
36789;SDS011;22740;52.182;8.780;2023-03-01T10:05:05;7.93;;;5.10;;
36789;SDS011;22740;52.182;8.780;2023-03-01T10:11:27;9.45;;;5.32;;
36789;SDS011;22740;52.182;8.780;2023-03-01T10:23:39;9.55;;;5.07;;
36789;SDS011;22740;52.182;8.780;2023-03-01T10:29:45;9.07;;;5.28;;
36789;SDS011;22740;52.182;8.780;2023-03-01T10:36:02;10.82;;;4.65;;
36789;SDS011;22740;52.182;8.780;2023-03-01T10:42:05;7.85;;;4.75;;
36789;SDS011;22740;52.182;8.780;2023-03-01T10:48:24;8.63;;;4.90;;
36789;SDS011;22740;52.182;8.780;2023-03-01T10:54:31;6.78;;;3.92;;
36789;SDS011;22740;52.182;8.780;2023-03-01T11:00:34;8.20;;;4.55;;
36789;SDS011;22740;52.182;8.780;2023-03-01T11:06:58;11.00;;;4.72;;
36789;SDS011;22740;52.182;8.780;2023-03-01T11:13:15;9.57;;;4.40;;
36789;SDS011;22740;52.182;8.780;2023-03-01T11:19:19;8.00;;;4.30;;
36789;SDS011;22740;52.182;8.780;2023-03-01T11:25:26;8.07;;;4.63;;
36789;SDS011;22740;52.182;8.780;2023-03-01T11:31:40;9.93;;;4.72;;
36789;SDS011;22740;52.182;8.780;2023-03-01T11:44:36;6.93;;;4.20;;
36789;SDS011;22740;52.182;8.780;2023-03-01T11:50:42;10.82;;;5.18;;
36789;SDS011;22740;52.182;8.780;2023-03-01T11:56:50;9.10;;;5.05;;
36789;SDS011;22740;52.182;8.780;2023-03-01T12:03:16;9.25;;;4.68;;
36789;SDS011;22740;52.182;8.780;2023-03-01T12:09:40;10.00;;;5.38;;
36789;SDS011;22740;52.182;8.780;2023-03-01T12:28:36;12.23;;;5.47;;
36789;SDS011;22740;52.182;8.780;2023-03-01T12:41:11;8.27;;;4.90;;
36789;SDS011;22740;52.182;8.780;2023-03-01T12:47:26;9.73;;;4.95;;
36789;SDS011;22740;52.182;8.780;2023-03-01T12:53:50;7.85;;;4.70;;
36789;SDS011;22740;52.182;8.780;2023-03-01T13:00:02;7.82;;;4.50;;
36789;SDS011;22740;52.182;8.780;2023-03-01T13:06:21;8.88;;;4.60;;
36789;SDS011;22740;52.182;8.780;2023-03-01T13:19:17;11.00;;;4.82;;
36789;SDS011;22740;52.182;8.780;2023-03-01T13:25:23;7.82;;;4.43;;
36789;SDS011;22740;52.182;8.780;2023-03-01T13:37:39;9.05;;;4.82;;
36789;SDS011;22740;52.182;8.780;2023-03-01T13:43:42;8.45;;;4.65;;
36789;SDS011;22740;52.182;8.780;2023-03-01T13:49:56;10.55;;;4.80;;
36789;SDS011;22740;52.182;8.780;2023-03-01T13:56:02;6.72;;;4.10;;
36789;SDS011;22740;52.182;8.780;2023-03-01T14:02:24;9.45;;;3.88;;
36789;SDS011;22740;52.182;8.780;2023-03-01T14:08:28;10.15;;;4.30;;
36789;SDS011;22740;52.182;8.780;2023-03-01T14:20:40;6.90;;;3.60;;
36789;SDS011;22740;52.182;8.780;2023-03-01T14:26:44;10.65;;;4.25;;
36789;SDS011;22740;52.182;8.780;2023-03-01T14:32:52;5.75;;;2.88;;
36789;SDS011;22740;52.182;8.780;2023-03-01T14:38:58;6.30;;;3.30;;
36789;SDS011;22740;52.182;8.780;2023-03-01T14:45:10;6.05;;;2.85;;
36789;SDS011;22740;52.182;8.780;2023-03-01T14:51:14;5.68;;;2.70;;
36789;SDS011;22740;52.182;8.780;2023-03-01T14:57:20;5.85;;;2.80;;
36789;SDS011;22740;52.182;8.780;2023-03-01T15:09:27;5.53;;;2.33;;
36789;SDS011;22740;52.182;8.780;2023-03-01T15:21:37;5.15;;;2.33;;
36789;SDS011;22740;52.182;8.780;2023-03-01T15:27:40;5.10;;;2.20;;
36789;SDS011;22740;52.182;8.780;2023-03-01T15:33:47;4.68;;;2.70;;
36789;SDS011;22740;52.182;8.780;2023-03-01T15:39:54;5.43;;;2.58;;
36789;SDS011;22740;52.182;8.780;2023-03-01T15:45:56;5.32;;;2.45;;
36789;SDS011;22740;52.182;8.780;2023-03-01T15:51:59;5.38;;;2.63;;
36789;SDS011;22740;52.182;8.780;2023-03-01T15:58:05;6.60;;;2.83;;
36789;SDS011;22740;52.182;8.780;2023-03-01T16:04:13;8.30;;;2.80;;
36789;SDS011;22740;52.182;8.780;2023-03-01T16:10:32;4.60;;;2.47;;
36789;SDS011;22740;52.182;8.780;2023-03-01T16:16:35;6.72;;;2.40;;
36789;SDS011;22740;52.182;8.780;2023-03-01T16:22:36;7.38;;;3.00;;
36789;SDS011;22740;52.182;8.780;2023-03-01T16:28:39;9.50;;;3.22;;
36789;SDS011;22740;52.182;8.780;2023-03-01T16:34:42;4.87;;;2.60;;
36789;SDS011;22740;52.182;8.780;2023-03-01T16:40:47;5.40;;;2.60;;
36789;SDS011;22740;52.182;8.780;2023-03-01T16:46:50;5.63;;;2.85;;
36789;SDS011;22740;52.182;8.780;2023-03-01T16:52:52;5.18;;;2.60;;
36789;SDS011;22740;52.182;8.780;2023-03-01T16:58:54;4.72;;;2.95;;
36789;SDS011;22740;52.182;8.780;2023-03-01T17:04:56;7.07;;;3.40;;
36789;SDS011;22740;52.182;8.780;2023-03-01T17:11:02;7.20;;;2.90;;
36789;SDS011;22740;52.182;8.780;2023-03-01T17:17:05;8.38;;;4.10;;
36789;SDS011;22740;52.182;8.780;2023-03-01T17:23:07;8.25;;;3.80;;
36789;SDS011;22740;52.182;8.780;2023-03-01T17:29:08;5.82;;;2.97;;
36789;SDS011;22740;52.182;8.780;2023-03-01T17:35:10;8.85;;;4.38;;
36789;SDS011;22740;52.182;8.780;2023-03-01T17:41:12;7.47;;;3.92;;
36789;SDS011;22740;52.182;8.780;2023-03-01T17:47:17;7.95;;;4.03;;
36789;SDS011;22740;52.182;8.780;2023-03-01T17:53:19;6.32;;;3.42;;
36789;SDS011;22740;52.182;8.780;2023-03-01T17:59:21;6.10;;;3.53;;
36789;SDS011;22740;52.182;8.780;2023-03-01T18:05:23;4.93;;;2.45;;
36789;SDS011;22740;52.182;8.780;2023-03-01T18:11:25;7.20;;;3.20;;
36789;SDS011;22740;52.182;8.780;2023-03-01T18:17:27;7.45;;;3.15;;
36789;SDS011;22740;52.182;8.780;2023-03-01T18:23:30;9.00;;;3.20;;
36789;SDS011;22740;52.182;8.780;2023-03-01T18:29:35;7.23;;;3.50;;
36789;SDS011;22740;52.182;8.780;2023-03-01T18:35:37;11.07;;;3.85;;
36789;SDS011;22740;52.182;8.780;2023-03-01T18:41:39;8.63;;;3.45;;
36789;SDS011;22740;52.182;8.780;2023-03-01T18:47:41;5.32;;;2.95;;
36789;SDS011;22740;52.182;8.780;2023-03-01T18:53:43;6.70;;;2.95;;
36789;SDS011;22740;52.182;8.780;2023-03-01T18:59:45;5.53;;;2.97;;
36789;SDS011;22740;52.182;8.780;2023-03-01T19:05:46;6.10;;;2.88;;
36789;SDS011;22740;52.182;8.780;2023-03-01T19:11:48;6.13;;;2.50;;
36789;SDS011;22740;52.182;8.780;2023-03-01T19:17:50;4.82;;;2.45;;
36789;SDS011;22740;52.182;8.780;2023-03-01T19:23:54;6.18;;;3.33;;
36789;SDS011;22740;52.182;8.780;2023-03-01T19:29:57;7.57;;;2.97;;
36789;SDS011;22740;52.182;8.780;2023-03-01T19:36:00;5.65;;;2.85;;
36789;SDS011;22740;52.182;8.780;2023-03-01T19:42:02;5.85;;;2.90;;
36789;SDS011;22740;52.182;8.780;2023-03-01T19:48:05;6.07;;;3.03;;
36789;SDS011;22740;52.182;8.780;2023-03-01T19:54:07;5.50;;;2.88;;
36789;SDS011;22740;52.182;8.780;2023-03-01T20:00:12;7.10;;;2.95;;
36789;SDS011;22740;52.182;8.780;2023-03-01T20:06:16;7.07;;;2.95;;
36789;SDS011;22740;52.182;8.780;2023-03-01T20:12:21;7.47;;;3.40;;
36789;SDS011;22740;52.182;8.780;2023-03-01T20:18:23;7.38;;;3.83;;
36789;SDS011;22740;52.182;8.780;2023-03-01T20:24:26;8.48;;;4.50;;
36789;SDS011;22740;52.182;8.780;2023-03-01T20:30:28;10.32;;;4.65;;
36789;SDS011;22740;52.182;8.780;2023-03-01T20:36:30;8.52;;;4.90;;
36789;SDS011;22740;52.182;8.780;2023-03-01T20:42:32;10.27;;;5.53;;
36789;SDS011;22740;52.182;8.780;2023-03-01T20:48:34;7.53;;;4.07;;
36789;SDS011;22740;52.182;8.780;2023-03-01T20:54:36;8.73;;;4.55;;
36789;SDS011;22740;52.182;8.780;2023-03-01T21:00:38;8.85;;;5.07;;
36789;SDS011;22740;52.182;8.780;2023-03-01T21:06:40;12.25;;;4.68;;
36789;SDS011;22740;52.182;8.780;2023-03-01T21:12:43;14.32;;;5.22;;
36789;SDS011;22740;52.182;8.780;2023-03-01T21:18:45;8.48;;;3.83;;
36789;SDS011;22740;52.182;8.780;2023-03-01T21:24:49;6.53;;;3.53;;
36789;SDS011;22740;52.182;8.780;2023-03-01T21:30:52;12.88;;;4.80;;
36789;SDS011;22740;52.182;8.780;2023-03-01T21:36:54;11.23;;;6.00;;
36789;SDS011;22740;52.182;8.780;2023-03-01T21:42:56;10.93;;;4.97;;
36789;SDS011;22740;52.182;8.780;2023-03-01T21:48:58;12.07;;;5.00;;
36789;SDS011;22740;52.182;8.780;2023-03-01T21:55:00;10.63;;;4.53;;
36789;SDS011;22740;52.182;8.780;2023-03-01T22:01:10;8.82;;;4.18;;
36789;SDS011;22740;52.182;8.780;2023-03-01T22:07:17;8.83;;;4.30;;
36789;SDS011;22740;52.182;8.780;2023-03-01T22:13:20;8.85;;;4.50;;
36789;SDS011;22740;52.182;8.780;2023-03-01T22:19:22;9.63;;;5.07;;
36789;SDS011;22740;52.182;8.780;2023-03-01T22:25:24;9.20;;;4.75;;
36789;SDS011;22740;52.182;8.780;2023-03-01T22:31:27;7.65;;;3.80;;
36789;SDS011;22740;52.182;8.780;2023-03-01T22:37:32;8.85;;;4.43;;
36789;SDS011;22740;52.182;8.780;2023-03-01T22:43:34;13.95;;;6.50;;
36789;SDS011;22740;52.182;8.780;2023-03-01T22:49:37;11.80;;;5.82;;
36789;SDS011;22740;52.182;8.780;2023-03-01T22:55:39;15.93;;;6.70;;
36789;SDS011;22740;52.182;8.780;2023-03-01T23:01:41;11.48;;;4.25;;
36789;SDS011;22740;52.182;8.780;2023-03-01T23:07:47;9.85;;;4.80;;
36789;SDS011;22740;52.182;8.780;2023-03-01T23:13:49;7.00;;;3.85;;
36789;SDS011;22740;52.182;8.780;2023-03-01T23:19:52;13.10;;;3.97;;
36789;SDS011;22740;52.182;8.780;2023-03-01T23:25:54;10.48;;;4.90;;
36789;SDS011;22740;52.182;8.780;2023-03-01T23:32:00;7.82;;;4.25;;
36789;SDS011;22740;52.182;8.780;2023-03-01T23:38:02;7.07;;;4.10;;
36789;SDS011;22740;52.182;8.780;2023-03-01T23:44:04;7.40;;;3.25;;
36789;SDS011;22740;52.182;8.780;2023-03-01T23:50:06;7.50;;;3.88;;
36789;SDS011;22740;52.182;8.780;2023-03-01T23:56:11;5.93;;;3.22;;
